Time;durP1;ratioP1;P1;durP2;ratioP2;P2;SDS_P1;SDS_P2;PMS_P1;PMS_P2;Temp;Humidity;BMP_temperature;BMP_pressure;BME280_temperature;BME280_humidity;BME280_pressure;Samples;Min_cycle;Max_cycle;Signal;HPM_P1;HPM_P2
2023/10/16 00:02:22;;;;;;;0.30;0.30;;;4.40;98.80;;;;;;5031554;28;20230;-60
2023/10/16 00:04:49;;;;;;;0.68;0.68;;;4.40;99.00;;;;;;5031507;28;20226;-60
2023/10/16 00:07:16;;;;;;;0.47;0.47;;;4.50;98.80;;;;;;5031481;28;20262;-59
2023/10/16 00:09:42;;;;;;;2.45;1.15;;;4.50;98.70;;;;;;5031581;28;20175;-61
2023/10/16 00:12:08;;;;;;;0.30;0.30;;;4.50;98.70;;;;;;5031649;28;20404;-61
2023/10/16 00:14:35;;;;;;;0.40;0.40;;;4.30;98.70;;;;;;5031329;28;20206;-60
2023/10/16 00:17:08;;;;;;;0.40;0.40;;;4.30;99.00;;;;;;5031138;28;20194;-60
2023/10/16 00:19:37;;;;;;;0.50;0.50;;;4.40;99.20;;;;;;5031661;28;20683;-61
2023/10/16 00:22:18;;;;;;;1.65;1.60;;;4.40;99.10;;;;;;5031634;28;20227;-60
2023/10/16 00:24:47;;;;;;;0.40;0.40;;;4.40;98.90;;;;;;5031345;28;20584;-60
2023/10/16 00:27:16;;;;;;;0.30;0.30;;;4.30;99.00;;;;;;5030981;28;20250;-60
2023/10/16 00:29:45;;;;;;;0.40;0.40;;;4.30;99.20;;;;;;5031358;28;20258;-61
2023/10/16 00:32:11;;;;;;;0.35;0.35;;;4.40;98.90;;;;;;5031300;28;20202;-59
2023/10/16 00:34:38;;;;;;;0.43;0.43;;;4.50;98.70;;;;;;5031234;28;20707;-60
2023/10/16 00:37:04;;;;;;;0.40;0.40;;;4.60;98.80;;;;;;5031103;28;20166;-60
2023/10/16 00:39:32;;;;;;;0.60;0.60;;;4.70;98.80;;;;;;5031271;28;20537;-61
2023/10/16 00:41:58;;;;;;;0.40;0.40;;;4.70;98.10;;;;;;5031159;28;20721;-60
2023/10/16 00:44:33;;;;;;;0.60;0.60;;;4.80;98.00;;;;;;5031209;28;20203;-61
2023/10/16 00:47:07;;;;;;;0.50;0.50;;;4.80;98.10;;;;;;5030937;28;20274;-60
2023/10/16 00:49:34;;;;;;;0.40;0.40;;;4.80;98.10;;;;;;5031239;28;20589;-59
2023/10/16 00:52:04;;;;;;;0.40;0.40;;;4.90;98.00;;;;;;5031135;28;20178;-60
2023/10/16 00:54:39;;;;;;;0.40;0.40;;;4.90;97.80;;;;;;5030954;28;20202;-61
2023/10/16 00:57:07;;;;;;;0.50;0.50;;;4.90;97.60;;;;;;5030874;28;20178;-60
2023/10/16 00:59:35;;;;;;;1.13;0.93;;;4.80;97.70;;;;;;5031077;28;20726;-60
2023/10/16 01:02:07;;;;;;;0.63;0.63;;;4.80;97.80;;;;;;5031110;28;20301;-60
2023/10/16 01:04:33;;;;;;;0.40;0.40;;;4.70;97.70;;;;;;5031253;28;20195;-60
2023/10/16 01:07:00;;;;;;;0.30;0.30;;;4.70;97.80;;;;;;5033561;28;20505;-60
2023/10/16 01:09:27;;;;;;;3.40;1.38;;;4.80;97.90;;;;;;5034861;28;20412;-60
2023/10/16 01:11:59;;;;;;;0.40;0.40;;;4.80;97.30;;;;;;5034911;28;20174;-60
2023/10/16 01:14:25;;;;;;;0.50;0.50;;;4.70;97.30;;;;;;5034432;28;20297;-59
2023/10/16 01:16:54;;;;;;;0.40;0.40;;;4.80;97.50;;;;;;5034387;28;20270;-61
2023/10/16 01:19:20;;;;;;;0.40;0.40;;;4.80;97.40;;;;;;5034475;28;20437;-60
2023/10/16 01:21:46;;;;;;;0.73;0.73;;;4.90;97.60;;;;;;5034417;28;20175;-60
2023/10/16 01:24:12;;;;;;;0.40;0.40;;;4.90;97.50;;;;;;5034367;28;20190;-60
2023/10/16 01:26:40;;;;;;;0.40;0.40;;;4.90;97.20;;;;;;5034679;28;20264;-60
2023/10/16 01:29:09;;;;;;;1.77;1.67;;;4.80;97.00;;;;;;5034321;28;20171;-60
2023/10/16 01:31:43;;;;;;;0.40;0.40;;;4.80;97.10;;;;;;5034756;28;20653;-61
2023/10/16 01:34:12;;;;;;;0.30;0.30;;;4.70;97.20;;;;;;5034279;28;20186;-60
2023/10/16 01:36:45;;;;;;;0.68;0.68;;;4.70;97.30;;;;;;5034241;28;20175;-60
2023/10/16 01:39:47;;;;;;;0.40;0.40;;;4.70;97.00;;;;;;5034169;28;20187;-60
2023/10/16 01:42:01;;;;;;;0.32;0.32;;;4.70;97.00;;;;;;5033825;28;20711;-61
2023/10/16 01:44:28;;;;;;;1.05;0.50;;;4.70;96.80;;;;;;5033939;28;20198;-60
2023/10/16 01:46:54;;;;;;;1.40;0.93;;;4.60;96.90;;;;;;5033930;28;20182;-59
2023/10/16 01:49:24;;;;;;;0.60;0.60;;;4.60;97.00;;;;;;5034106;28;20216;-61
2023/10/16 01:51:51;;;;;;;0.50;0.50;;;4.70;97.20;;;;;;5034119;28;20606;-60
2023/10/16 01:54:18;;;;;;;0.30;0.30;;;4.80;97.10;;;;;;5033927;28;20226;-60
2023/10/16 01:56:44;;;;;;;0.40;0.40;;;4.80;97.20;;;;;;5033319;28;20183;-60
2023/10/16 01:59:09;;;;;;;0.30;0.30;;;4.80;97.20;;;;;;5033798;28;20198;-60
2023/10/16 02:01:36;;;;;;;0.50;0.50;;;4.80;97.10;;;;;;5033815;28;20182;-60
2023/10/16 02:04:06;;;;;;;0.40;0.40;;;4.70;97.10;;;;;;5033733;28;20312;-60
2023/10/16 02:06:32;;;;;;;0.40;0.40;;;4.60;97.20;;;;;;5033689;28;20194;-60
2023/10/16 02:08:59;;;;;;;0.57;0.57;;;4.60;97.30;;;;;;5033503;28;20171;-60
2023/10/16 02:11:25;;;;;;;0.40;0.40;;;4.60;97.40;;;;;;5033518;28;20232;-61
2023/10/16 02:13:51;;;;;;;0.43;0.40;;;4.70;97.30;;;;;;5033514;28;20214;-60
2023/10/16 02:16:18;;;;;;;0.40;0.40;;;4.60;97.20;;;;;;5033587;28;20178;-61
2023/10/16 02:18:46;;;;;;;0.40;0.40;;;4.50;97.10;;;;;;5032911;28;20179;-60
2023/10/16 02:21:13;;;;;;;0.95;0.63;;;4.60;97.10;;;;;;5033482;28;20228;-60
2023/10/16 02:23:39;;;;;;;0.30;0.30;;;4.60;97.40;;;;;;5033267;28;20589;-60
2023/10/16 02:26:08;;;;;;;0.50;0.50;;;4.60;97.00;;;;;;5032086;28;20175;-60
2023/10/16 02:28:34;;;;;;;0.40;0.40;;;4.50;97.00;;;;;;5033087;28;20664;-60
2023/10/16 02:31:16;;;;;;;0.30;0.30;;;4.50;96.80;;;;;;5033327;28;20182;-60
2023/10/16 02:33:50;;;;;;;0.60;0.60;;;4.60;96.70;;;;;;5033129;28;20222;-60
2023/10/16 02:36:19;;;;;;;1.20;1.10;;;4.60;96.90;;;;;;5032999;28;20187;-61
2023/10/16 02:38:47;;;;;;;0.52;0.52;;;4.60;97.00;;;;;;5033300;28;20708;-60
2023/10/16 02:41:19;;;;;;;0.50;0.50;;;4.60;96.80;;;;;;5033150;28;20187;-60
2023/10/16 02:43:46;;;;;;;0.35;0.35;;;4.50;97.00;;;;;;5033034;28;20339;-60
2023/10/16 02:46:13;;;;;;;8.80;2.85;;;4.40;97.20;;;;;;5032862;28;20183;-60
2023/10/16 02:48:42;;;;;;;0.30;0.30;;;4.40;97.50;;;;;;5032757;28;20571;-59
2023/10/16 02:51:09;;;;;;;1.05;0.95;;;4.30;97.80;;;;;;5033029;28;20228;-61
2023/10/16 02:53:42;;;;;;;0.40;0.40;;;4.30;97.70;;;;;;5032932;28;20206;-60
2023/10/16 02:56:08;;;;;;;0.40;0.40;;;4.30;97.70;;;;;;5032728;28;20182;-61
2023/10/16 02:58:42;;;;;;;0.40;0.40;;;4.30;97.60;;;;;;5032533;28;20530;-60
2023/10/16 03:01:14;;;;;;;0.30;0.30;;;4.30;97.60;;;;;;5032747;28;20273;-60
2023/10/16 03:03:43;;;;;;;0.30;0.30;;;4.30;97.50;;;;;;5033017;28;20762;-61
2023/10/16 03:06:09;;;;;;;0.40;0.40;;;4.30;97.50;;;;;;5032563;28;20183;-60
2023/10/16 03:08:36;;;;;;;0.40;0.40;;;4.40;97.80;;;;;;5032504;28;20163;-60
2023/10/16 03:11:13;;;;;;;0.40;0.40;;;4.40;97.60;;;;;;5032534;28;20178;-60
2023/10/16 03:13:43;;;;;;;0.50;0.50;;;4.30;97.80;;;;;;5055251;23;20226;-60
2023/10/16 03:16:26;;;;;;;2.63;0.60;;;4.30;98.00;;;;;;5011121;28;20610;-60
2023/10/16 03:19:02;;;;;;;0.30;0.30;;;4.20;98.00;;;;;;5011699;28;20184;-63
2023/10/16 03:21:28;;;;;;;0.40;0.40;;;4.30;98.10;;;;;;5012638;28;20181;-63
2023/10/16 03:23:54;;;;;;;2.10;0.50;;;4.40;97.80;;;;;;5012424;28;20262;-63
2023/10/16 03:26:32;;;;;;;0.30;0.30;;;4.40;97.80;;;;;;5012204;28;20580;-63
2023/10/16 03:29:02;;;;;;;1.90;0.50;;;4.40;97.70;;;;;;5011778;28;20175;-63
2023/10/16 03:31:28;;;;;;;0.30;0.30;;;4.30;98.00;;;;;;5012232;28;20176;-63
2023/10/16 03:33:55;;;;;;;0.70;0.70;;;4.30;98.20;;;;;;5011233;28;20743;-63
2023/10/16 03:36:21;;;;;;;0.30;0.30;;;4.20;98.50;;;;;;5012103;28;20611;-63
2023/10/16 03:38:50;;;;;;;0.38;0.38;;;4.30;98.10;;;;;;5011964;28;20213;-63
2023/10/16 03:41:28;;;;;;;0.40;0.40;;;4.20;98.00;;;;;;5012116;28;20197;-63
2023/10/16 03:43:58;;;;;;;0.30;0.30;;;4.30;98.30;;;;;;5012030;28;20210;-63
2023/10/16 03:46:27;;;;;;;0.40;0.40;;;4.40;98.10;;;;;;5012087;28;20183;-63
2023/10/16 03:48:54;;;;;;;0.30;0.30;;;4.20;98.10;;;;;;5011906;28;20183;-63
2023/10/16 03:51:21;;;;;;;0.88;0.60;;;4.20;98.20;;;;;;5011888;28;20187;-63
2023/10/16 03:53:47;;;;;;;0.50;0.50;;;4.20;98.30;;;;;;5012186;28;20229;-63
2023/10/16 03:56:13;;;;;;;0.52;0.52;;;4.10;98.00;;;;;;5011999;28;20179;-63
2023/10/16 03:58:43;;;;;;;0.30;0.30;;;4.10;97.80;;;;;;5011856;28;20190;-63
2023/10/16 04:01:10;;;;;;;0.30;0.30;;;4.10;97.80;;;;;;5011984;28;20204;-63
2023/10/16 04:04:12;;;;;;;0.40;0.40;;;4.00;98.00;;;;;;5011719;28;20199;-63
2023/10/16 04:06:28;;;;;;;0.30;0.30;;;4.10;98.50;;;;;;5008636;28;20653;-63
2023/10/16 04:08:55;;;;;;;0.40;0.40;;;4.10;98.20;;;;;;5011638;28;20187;-63
2023/10/16 04:11:25;;;;;;;0.38;0.38;;;4.00;98.20;;;;;;5011926;28;20226;-63
2023/10/16 04:13:54;;;;;;;0.30;0.30;;;4.00;98.50;;;;;;5011633;28;20215;-63
2023/10/16 04:16:54;;;;;;;0.40;0.40;;;4.00;98.80;;;;;;5011502;28;20205;-63
2023/10/16 04:19:36;;;;;;;1.80;0.47;;;3.90;98.90;;;;;;5011598;28;20186;-63
2023/10/16 04:22:08;;;;;;;3.08;1.73;;;3.90;98.80;;;;;;5011698;28;20706;-63
2023/10/16 04:24:44;;;;;;;0.73;0.60;;;3.80;99.00;;;;;;5011513;28;20211;-63
2023/10/16 04:35:03;;;;;;;0.40;0.40;;;3.90;99.30;;;;;;5011445;28;20202;-63
2023/10/16 04:37:40;;;;;;;0.35;0.35;;;3.90;99.40;;;;;;5011287;28;20249;-62
2023/10/16 05:11:27;;;;;;;0.40;0.40;;;4.10;98.20;;;;;;5015130;28;20171;-62
2023/10/16 05:16:31;;;;;;;0.40;0.40;;;4.20;98.10;;;;;;5014922;28;20194;-63
2023/10/16 05:19:03;;;;;;;0.93;0.60;;;4.10;98.00;;;;;;5014533;28;20613;-63
2023/10/16 06:16:28;;;;;;;2.05;0.93;;;4.60;98.10;;;;;;5013679;28;20637;-63
2023/10/16 06:18:53;;;;;;;0.52;0.52;;;4.70;97.80;;;;;;5013394;28;20187;-63
2023/10/16 06:21:19;;;;;;;0.40;0.40;;;4.60;98.00;;;;;;5013564;28;20255;-63
2023/10/16 06:23:48;;;;;;;0.30;0.30;;;4.80;98.40;;;;;;5013640;28;20256;-63
2023/10/16 06:26:15;;;;;;;4.10;0.70;;;4.90;98.00;;;;;;5013381;28;20171;-63
2023/10/16 06:28:49;;;;;;;0.68;0.68;;;5.00;97.80;;;;;;5013363;28;20266;-63
2023/10/16 06:31:24;;;;;;;8.90;0.82;;;5.10;97.80;;;;;;5013447;28;20221;-63
2023/10/16 06:33:56;;;;;;;8.48;1.15;;;5.30;97.80;;;;;;5013679;28;20194;-63
2023/10/16 06:36:23;;;;;;;1.60;0.77;;;5.40;97.20;;;;;;5013206;28;20456;-63
2023/10/16 06:38:51;;;;;;;0.38;0.38;;;5.60;97.20;;;;;;5013109;28;20168;-63
2023/10/16 06:41:21;;;;;;;0.73;0.73;;;5.60;96.80;;;;;;5013233;28;20163;-62
2023/10/16 06:43:50;;;;;;;0.50;0.50;;;5.70;96.60;;;;;;5013076;28;20199;-63
2023/10/16 06:46:23;;;;;;;0.40;0.40;;;5.80;96.80;;;;;;5012898;28;20190;-63
2023/10/16 06:48:53;;;;;;;0.82;0.63;;;6.00;96.70;;;;;;5013175;28;20179;-63
2023/10/16 06:51:25;;;;;;;0.50;0.50;;;6.00;96.60;;;;;;5013095;28;20164;-63
2023/10/16 06:53:56;;;;;;;1.52;0.88;;;6.20;96.20;;;;;;5013020;28;20207;-63
2023/10/16 06:56:30;;;;;;;0.88;0.88;;;6.20;95.30;;;;;;5012868;28;20179;-63
2023/10/16 06:58:57;;;;;;;0.40;0.40;;;6.10;93.30;;;;;;5012558;28;20179;-63
2023/10/16 07:01:25;;;;;;;1.02;0.65;;;6.30;93.90;;;;;;5012822;28;20673;-63
2023/10/16 07:03:57;;;;;;;1.80;1.45;;;6.50;94.20;;;;;;5012750;28;20216;-63
2023/10/16 07:06:32;;;;;;;0.40;0.40;;;6.90;93.40;;;;;;5012632;28;20643;-63
2023/10/16 07:09:00;;;;;;;0.40;0.40;;;7.30;91.80;;;;;;5012620;28;20175;-63
2023/10/16 07:11:27;;;;;;;0.80;0.80;;;7.90;91.40;;;;;;5012621;28;20170;-62
2023/10/16 07:13:52;;;;;;;1.15;0.73;;;8.90;91.10;;;;;;5012461;28;20199;-61
2023/10/16 07:16:19;;;;;;;0.60;0.60;;;9.90;85.40;;;;;;5012526;28;20175;-61
2023/10/16 07:18:45;;;;;;;0.30;0.30;;;10.00;81.30;;;;;;5012502;28;20239;-61
2023/10/16 07:21:17;;;;;;;0.87;0.60;;;10.70;80.10;;;;;;5012577;28;20417;-61
2023/10/16 07:23:43;;;;;;;0.40;0.40;;;11.30;78.10;;;;;;5012277;28;20199;-61
2023/10/16 07:26:10;;;;;;;0.43;0.43;;;12.40;75.80;;;;;;5012866;28;20410;-61
2023/10/16 07:28:37;;;;;;;2.60;0.60;;;13.30;73.10;;;;;;5012462;28;20779;-61
2023/10/16 07:31:05;;;;;;;0.50;0.50;;;13.80;69.70;;;;;;5012317;28;20415;-61
2023/10/16 07:33:32;;;;;;;0.50;0.50;;;13.90;66.20;;;;;;5012645;28;20440;-61
2023/10/16 07:36:01;;;;;;;0.40;0.40;;;13.60;62.60;;;;;;5012216;28;20406;-61
2023/10/16 07:38:28;;;;;;;0.80;0.80;;;13.30;64.90;;;;;;5011958;28;20429;-61
2023/10/16 07:40:57;;;;;;;0.60;0.60;;;13.10;64.50;;;;;;5012245;28;20414;-61
2023/10/16 07:43:28;;;;;;;0.97;0.87;;;12.50;65.40;;;;;;5012073;28;20885;-61
2023/10/16 07:46:16;;;;;;;0.50;0.50;;;11.70;65.70;;;;;;5010823;28;20480;-60
2023/10/16 07:48:52;;;;;;;0.37;0.37;;;11.60;66.80;;;;;;5011854;28;20465;-61
2023/10/16 07:51:20;;;;;;;0.97;0.87;;;12.00;66.50;;;;;;5012140;28;20407;-61
2023/10/16 07:53:50;;;;;;;1.00;0.90;;;12.40;67.60;;;;;;5012146;28;20933;-61
2023/10/16 07:56:19;;;;;;;0.40;0.40;;;13.20;64.50;;;;;;5011852;28;20418;-61
2023/10/16 07:58:52;;;;;;;0.50;0.50;;;13.40;63.20;;;;;;5011763;28;20417;-61
2023/10/16 08:04:18;;;;;;;0.40;0.40;;;13.10;63.10;;;;;;5011804;28;20465;-61
2023/10/16 08:06:45;;;;;;;0.50;0.50;;;14.70;60.50;;;;;;5011706;28;20536;-63
2023/10/16 08:11:46;;;;;;;0.50;0.50;;;18.80;50.60;;;;;;5011717;28;20475;-61
2023/10/16 08:14:13;;;;;;;0.67;0.67;;;18.60;48.10;;;;;;5011461;28;20420;-62
2023/10/16 08:16:39;;;;;;;0.60;0.60;;;18.20;49.10;;;;;;5011172;28;20403;-61
2023/10/16 08:19:14;;;;;;;0.70;0.50;;;19.10;47.50;;;;;;5011626;28;20409;-61
2023/10/16 08:21:42;;;;;;;0.50;0.50;;;18.00;46.40;;;;;;5011704;28;20412;-61
2023/10/16 08:24:12;;;;;;;1.60;0.80;;;17.50;47.50;;;;;;5011467;28;20537;-61
2023/10/16 08:26:42;;;;;;;0.67;0.67;;;16.10;48.70;;;;;;5011564;28;20418;-61
2023/10/16 08:29:12;;;;;;;0.70;0.60;;;15.10;51.60;;;;;;5011697;28;20431;-61
2023/10/16 08:31:41;;;;;;;0.67;0.50;;;14.60;51.50;;;;;;5011636;28;20445;-61
2023/10/16 08:34:21;;;;;;;0.50;0.50;;;13.90;54.20;;;;;;5011555;28;20466;-61
2023/10/16 08:36:50;;;;;;;1.43;1.33;;;13.10;55.70;;;;;;5011292;28;20444;-61
2023/10/16 08:39:17;;;;;;;0.30;0.30;;;12.90;55.50;;;;;;5011502;28;20476;-61
2023/10/16 08:41:45;;;;;;;0.50;0.50;;;13.50;56.60;;;;;;5011477;28;20414;-61
2023/10/16 08:44:18;;;;;;;1.17;0.90;;;14.60;55.10;;;;;;5011341;28;20520;-61
2023/10/16 08:46:45;;;;;;;0.60;0.40;;;16.00;53.40;;;;;;5011294;28;20417;-61
2023/10/16 08:49:11;;;;;;;0.40;0.40;;;16.80;51.00;;;;;;5011429;28;20495;-61
2023/10/16 08:51:38;;;;;;;1.50;0.60;;;17.10;49.70;;;;;;5011482;28;20916;-61
2023/10/16 08:54:05;;;;;;;1.93;0.57;;;17.10;49.10;;;;;;5011467;28;20510;-62
2023/10/16 08:56:31;;;;;;;0.63;0.63;;;17.90;48.90;;;;;;5011190;28;20503;-61
2023/10/16 08:59:01;;;;;;;1.10;0.60;;;18.40;44.60;;;;;;5011247;28;20418;-61
2023/10/16 09:01:28;;;;;;;0.50;0.50;;;18.10;45.40;;;;;;5011523;28;20411;-61
2023/10/16 09:04:05;;;;;;;0.43;0.43;;;16.70;45.60;;;;;;5011619;28;20458;-62
2023/10/16 09:06:36;;;;;;;1.53;0.70;;;15.70;48.70;;;;;;5011422;28;20422;-61
2023/10/16 09:09:11;;;;;;;0.60;0.60;;;15.60;48.10;;;;;;5011313;28;20426;-61
2023/10/16 09:11:39;;;;;;;0.40;0.40;;;16.30;47.80;;;;;;5011221;28;20453;-61
2023/10/16 09:14:07;;;;;;;0.50;0.50;;;15.70;50.20;;;;;;5010907;28;20454;-61
2023/10/16 09:16:34;;;;;;;0.47;0.47;;;16.70;47.90;;;;;;5011107;28;20457;-61
2023/10/16 09:19:06;;;;;;;0.77;0.77;;;16.40;46.70;;;;;;5010941;28;20418;-61
2023/10/16 09:21:38;;;;;;;0.73;0.60;;;15.30;46.50;;;;;;5011336;28;20469;-60
2023/10/16 09:24:05;;;;;;;1.13;0.53;;;14.60;46.80;;;;;;5011140;28;20531;-61
2023/10/16 09:26:37;;;;;;;0.83;0.60;;;13.90;49.30;;;;;;5011051;28;20422;-61
2023/10/16 09:29:14;;;;;;;0.73;0.57;;;14.00;49.00;;;;;;5013895;28;20777;-61
2023/10/16 09:31:43;;;;;;;0.73;0.73;;;14.40;49.40;;;;;;5014861;28;20743;-61
2023/10/16 09:34:10;;;;;;;1.83;0.70;;;15.20;48.80;;;;;;5014480;28;20475;-61
2023/10/16 09:36:37;;;;;;;0.40;0.40;;;16.10;48.30;;;;;;5014345;28;20916;-62
2023/10/16 09:39:16;;;;;;;0.50;0.50;;;17.00;45.40;;;;;;5014239;28;20415;-61
2023/10/16 09:41:43;;;;;;;0.43;0.43;;;17.80;44.30;;;;;;5014461;28;20410;-61
2023/10/16 09:44:24;;;;;;;0.40;0.40;;;18.40;43.30;;;;;;5014339;28;20460;-61
2023/10/16 09:46:53;;;;;;;0.50;0.50;;;19.20;43.80;;;;;;5014112;28;20419;-62
2023/10/16 09:49:24;;;;;;;0.30;0.30;;;20.40;43.00;;;;;;5014716;28;20381;-61
2023/10/16 09:51:57;;;;;;;0.40;0.40;;;20.10;41.80;;;;;;5014129;28;20500;-61
2023/10/16 09:54:26;;;;;;;1.27;0.60;;;18.30;42.50;;;;;;5014304;28;20509;-61
2023/10/16 09:56:59;;;;;;;0.43;0.43;;;18.20;43.10;;;;;;5013778;28;20532;-61
2023/10/16 09:59:38;;;;;;;0.70;0.40;;;18.20;43.30;;;;;;5014058;28;20910;-61
2023/10/16 10:02:08;;;;;;;2.10;0.90;;;18.50;43.90;;;;;;5013937;28;20417;-62
2023/10/16 10:04:36;;;;;;;0.40;0.40;;;18.80;42.50;;;;;;5014191;28;20441;-61
2023/10/16 10:07:13;;;;;;;0.50;0.50;;;19.10;40.30;;;;;;5013663;28;20411;-61
2023/10/16 10:09:44;;;;;;;1.10;1.00;;;18.70;40.70;;;;;;5014012;28;20488;-61
2023/10/16 10:12:53;;;;;;;0.50;0.50;;;18.00;40.50;;;;;;5013762;28;20413;-61
2023/10/16 10:15:30;;;;;;;0.60;0.60;;;17.50;41.50;;;;;;4933814;29;20554;-62
2023/10/16 10:18:03;;;;;;;0.67;0.67;;;17.50;40.90;;;;;;4933827;29;20452;-61
2023/10/16 10:20:39;;;;;;;0.67;0.57;;;17.60;41.10;;;;;;4983856;28;20454;-61
2023/10/16 10:23:08;;;;;;;2.03;0.90;;;17.60;43.20;;;;;;5013381;28;20447;-61
2023/10/16 10:25:35;;;;;;;0.40;0.40;;;17.20;41.60;;;;;;5013654;28;20776;-61
2023/10/16 10:28:09;;;;;;;1.40;1.30;;;16.90;41.00;;;;;;5013164;28;20449;-61
2023/10/16 10:30:43;;;;;;;0.63;0.63;;;16.60;41.60;;;;;;5012261;28;20422;-61
2023/10/16 10:33:11;;;;;;;0.40;0.40;;;16.40;41.90;;;;;;5013522;28;20926;-61
2023/10/16 10:35:43;;;;;;;0.60;0.47;;;16.10;41.60;;;;;;5013282;28;20436;-61
2023/10/16 10:38:21;;;;;;;1.33;0.40;;;15.60;42.20;;;;;;5012777;28;20414;-61
2023/10/16 10:41:08;;;;;;;0.57;0.53;;;15.20;43.30;;;;;;5013198;28;20499;-61
2023/10/16 10:43:47;;;;;;;1.87;1.20;;;15.30;44.50;;;;;;5013121;28;20473;-61
2023/10/16 10:46:22;;;;;;;0.57;0.57;;;15.40;44.50;;;;;;5013357;28;20422;-60
2023/10/16 10:48:48;;;;;;;0.60;0.60;;;15.20;46.40;;;;;;5013055;28;20533;-61
2023/10/16 10:51:16;;;;;;;0.50;0.50;;;14.70;47.40;;;;;;5013196;28;20591;-61
2023/10/16 10:53:58;;;;;;;0.40;0.40;;;14.60;48.30;;;;;;5013064;28;20495;-61
2023/10/16 10:56:40;;;;;;;0.40;0.40;;;14.40;47.10;;;;;;5012691;28;20418;-61
2023/10/16 10:59:09;;;;;;;0.50;0.50;;;14.40;48.60;;;;;;5012811;28;20504;-60
2023/10/16 11:04:33;;;;;;;0.70;0.70;;;13.90;44.90;;;;;;4972596;28;20999;-61
2023/10/16 11:07:11;;;;;;;0.37;0.37;;;13.60;46.60;;;;;;5012772;28;20398;-60
2023/10/16 11:09:38;;;;;;;1.13;0.60;;;13.80;47.10;;;;;;5012808;28;20923;-61
2023/10/16 11:12:07;;;;;;;0.40;0.40;;;13.90;46.90;;;;;;5012772;28;20399;-61
2023/10/16 11:14:37;;;;;;;0.50;0.50;;;14.10;51.30;;;;;;5012546;28;20461;-61
2023/10/16 11:17:06;;;;;;;0.40;0.40;;;14.10;49.90;;;;;;5012302;28;20437;-61
2023/10/16 11:19:49;;;;;;;0.40;0.40;;;14.10;49.40;;;;;;5012817;28;20414;-61
2023/10/16 11:22:26;;;;;;;0.50;0.50;;;13.90;46.70;;;;;;5012479;28;21014;-61
2023/10/16 11:24:54;;;;;;;0.63;0.63;;;13.70;46.30;;;;;;5012543;28;20473;-61
2023/10/16 11:27:20;;;;;;;0.77;0.50;;;13.60;47.80;;;;;;5012182;28;20461;-60
2023/10/16 11:29:47;;;;;;;1.00;0.77;;;13.50;46.70;;;;;;5012309;28;20810;-61
2023/10/16 11:32:17;;;;;;;0.53;0.53;;;13.50;47.30;;;;;;5012421;28;20532;-60
2023/10/16 11:34:44;;;;;;;0.70;0.53;;;13.70;48.00;;;;;;5012653;28;20805;-61
2023/10/16 11:37:12;;;;;;;0.50;0.50;;;13.70;47.60;;;;;;5012046;28;20421;-61
2023/10/16 11:39:38;;;;;;;0.40;0.40;;;13.70;47.50;;;;;;5012277;28;20785;-61
2023/10/16 11:42:04;;;;;;;0.43;0.43;;;13.70;48.90;;;;;;5012073;28;20835;-61
2023/10/16 11:44:33;;;;;;;0.40;0.40;;;13.70;47.30;;;;;;5012166;28;20461;-60
2023/10/16 11:47:03;;;;;;;0.40;0.40;;;13.80;44.20;;;;;;5011874;28;20433;-61
2023/10/16 11:49:30;;;;;;;0.50;0.50;;;13.70;43.90;;;;;;5012065;28;20414;-61
2023/10/16 11:52:08;;;;;;;0.30;0.30;;;13.60;44.40;;;;;;5011543;28;20410;-61
2023/10/16 11:54:34;;;;;;;0.60;0.60;;;13.50;45.90;;;;;;5011968;28;20430;-60
2023/10/16 11:57:00;;;;;;;0.40;0.40;;;13.10;45.90;;;;;;5011741;28;20465;-60
2023/10/16 11:59:28;;;;;;;0.53;0.50;;;13.10;48.70;;;;;;5012211;28;20411;-61
2023/10/16 12:01:59;;;;;;;0.57;0.57;;;13.20;45.80;;;;;;5011869;28;20169;-60
2023/10/16 12:04:26;;;;;;;0.40;0.40;;;13.40;44.10;;;;;;5011893;28;20528;-61
2023/10/16 12:06:52;;;;;;;1.37;0.50;;;13.30;48.20;;;;;;5011636;28;20737;-60
2023/10/16 12:09:21;;;;;;;0.40;0.40;;;12.80;49.10;;;;;;5011748;28;20419;-61
2023/10/16 12:11:51;;;;;;;0.60;0.40;;;12.50;48.50;;;;;;5011903;28;20427;-60
2023/10/16 12:14:18;;;;;;;0.40;0.40;;;12.00;47.40;;;;;;5011804;28;20461;-61
2023/10/16 12:16:45;;;;;;;0.57;0.57;;;11.80;48.50;;;;;;5011596;28;20429;-61
2023/10/16 12:19:12;;;;;;;0.50;0.50;;;11.90;49.30;;;;;;5011721;28;20419;-60
2023/10/16 12:21:38;;;;;;;0.60;0.60;;;12.20;48.10;;;;;;5011697;28;20414;-61
2023/10/16 12:24:04;;;;;;;0.40;0.40;;;12.40;46.70;;;;;;5011518;28;20613;-60
2023/10/16 12:26:30;;;;;;;0.40;0.40;;;12.60;45.40;;;;;;5011721;28;20641;-60
2023/10/16 12:28:59;;;;;;;3.40;0.60;;;12.50;45.20;;;;;;5011538;28;20409;-61
2023/10/16 12:31:26;;;;;;;0.50;0.50;;;12.50;45.60;;;;;;5011693;28;20406;-60
2023/10/16 12:33:51;;;;;;;0.40;0.40;;;12.40;46.70;;;;;;5011604;28;20804;-61
2023/10/16 12:36:18;;;;;;;0.60;0.60;;;12.50;47.20;;;;;;5011356;28;20419;-61
2023/10/16 12:38:44;;;;;;;1.20;1.13;;;12.50;47.70;;;;;;5011463;28;20190;-61
2023/10/16 12:41:10;;;;;;;3.50;0.60;;;12.60;48.40;;;;;;5011591;28;20445;-61
2023/10/16 12:43:36;;;;;;;0.40;0.40;;;12.50;49.90;;;;;;5011471;28;20472;-60
2023/10/16 12:46:03;;;;;;;0.43;0.43;;;12.50;47.00;;;;;;5011463;28;20426;-60
2023/10/16 12:48:29;;;;;;;0.40;0.40;;;12.50;46.10;;;;;;5011385;28;20414;-61
2023/10/16 12:50:59;;;;;;;0.37;0.37;;;12.50;45.70;;;;;;5011356;28;20407;-61
2023/10/16 12:53:28;;;;;;;1.07;1.07;;;12.30;46.10;;;;;;5011502;28;20473;-61
2023/10/16 12:55:55;;;;;;;0.40;0.40;;;12.30;47.00;;;;;;5011550;28;20422;-60
2023/10/16 12:58:22;;;;;;;0.30;0.30;;;12.40;47.10;;;;;;5011314;28;20422;-61
2023/10/16 13:00:50;;;;;;;0.40;0.40;;;12.40;48.10;;;;;;5011457;28;20464;-60
2023/10/16 13:03:20;;;;;;;0.50;0.50;;;12.30;48.10;;;;;;5014646;28;20537;-60
2023/10/16 13:05:52;;;;;;;0.50;0.50;;;12.00;46.70;;;;;;5015306;28;20434;-60
2023/10/16 13:08:20;;;;;;;0.40;0.40;;;11.80;46.60;;;;;;5014876;28;20501;-61
2023/10/16 13:10:48;;;;;;;0.53;0.50;;;11.70;46.10;;;;;;5015072;28;20407;-60
2023/10/16 13:13:15;;;;;;;0.60;0.60;;;11.60;46.40;;;;;;5014950;28;20425;-61
2023/10/16 13:15:45;;;;;;;0.40;0.40;;;11.50;48.40;;;;;;5014746;28;20462;-61
2023/10/16 13:18:12;;;;;;;0.30;0.30;;;11.70;48.00;;;;;;5014601;28;20433;-61
2023/10/16 13:20:37;;;;;;;0.55;0.55;;;11.60;47.30;;;;;;5014989;28;20938;-61
2023/10/16 13:23:05;;;;;;;0.47;0.47;;;11.70;45.20;;;;;;5014903;28;20298;-61
2023/10/16 13:25:31;;;;;;;0.40;0.40;;;11.70;47.20;;;;;;5014716;28;20204;-61
2023/10/16 13:27:58;;;;;;;1.07;0.83;;;11.60;47.50;;;;;;5014533;28;20463;-61
2023/10/16 13:30:25;;;;;;;0.40;0.40;;;11.60;47.00;;;;;;5014661;28;20171;-60
2023/10/16 13:32:52;;;;;;;0.97;0.50;;;11.60;46.80;;;;;;5014635;28;20418;-60
2023/10/16 13:35:20;;;;;;;2.53;0.63;;;11.70;46.60;;;;;;5014436;28;20484;-61
2023/10/16 13:37:47;;;;;;;0.30;0.30;;;11.70;44.20;;;;;;5014253;28;20406;-60
2023/10/16 13:40:21;;;;;;;0.43;0.43;;;11.70;46.10;;;;;;5014574;28;20904;-61
2023/10/16 13:42:56;;;;;;;0.30;0.30;;;11.70;45.70;;;;;;5014410;28;20455;-60
2023/10/16 13:45:25;;;;;;;4.17;0.70;;;11.60;44.90;;;;;;5014448;28;20594;-61
2023/10/16 13:47:51;;;;;;;0.60;0.50;;;11.70;45.20;;;;;;5014082;28;20399;-61
2023/10/16 13:50:24;;;;;;;0.40;0.40;;;11.60;46.10;;;;;;5014419;28;20553;-60
2023/10/16 13:52:50;;;;;;;0.63;0.63;;;11.40;46.00;;;;;;5014275;28;20210;-61
2023/10/16 13:55:20;;;;;;;0.60;0.40;;;11.40;46.30;;;;;;5014142;28;20266;-61
2023/10/16 13:57:47;;;;;;;1.15;0.98;;;11.40;46.70;;;;;;5014332;28;20183;-61
2023/10/16 14:00:29;;;;;;;0.40;0.40;;;11.40;48.00;;;;;;5014159;28;20202;-61
2023/10/16 14:03:08;;;;;;;0.40;0.40;;;11.40;47.90;;;;;;5013968;28;20684;-61
2023/10/16 14:05:41;;;;;;;0.38;0.38;;;11.40;48.40;;;;;;5013936;28;20222;-61
2023/10/16 14:08:10;;;;;;;0.40;0.40;;;11.40;46.50;;;;;;5013642;28;20176;-60
2023/10/16 14:10:52;;;;;;;0.30;0.30;;;11.40;47.40;;;;;;5014098;28;20591;-61
2023/10/16 14:13:18;;;;;;;1.02;0.40;;;11.30;46.70;;;;;;5013159;28;20614;-61
2023/10/16 14:15:46;;;;;;;0.77;0.77;;;11.20;48.20;;;;;;5013611;28;20203;-60
2023/10/16 14:18:14;;;;;;;0.40;0.40;;;11.10;47.90;;;;;;5013444;28;20187;-60
2023/10/16 14:20:45;;;;;;;0.50;0.50;;;10.80;50.00;;;;;;5013605;28;20184;-61
2023/10/16 14:23:14;;;;;;;0.52;0.52;;;10.80;50.40;;;;;;5014250;28;20207;-61
2023/10/16 14:25:47;;;;;;;0.55;0.55;;;10.80;48.70;;;;;;5013675;28;20199;-61
2023/10/16 14:31:01;;;;;;;1.40;1.40;;;10.70;49.60;;;;;;5013795;28;20175;-61
2023/10/16 14:33:28;;;;;;;0.52;0.52;;;10.70;48.50;;;;;;5013763;28;20187;-61
2023/10/16 14:36:05;;;;;;;0.40;0.40;;;10.70;49.60;;;;;;5013274;28;20195;-60
2023/10/16 14:38:31;;;;;;;0.55;0.55;;;10.90;47.90;;;;;;5013296;28;20180;-61
2023/10/16 14:41:04;;;;;;;0.40;0.40;;;11.00;49.30;;;;;;5013406;28;20244;-60
2023/10/16 14:43:33;;;;;;;0.30;0.30;;;10.90;49.60;;;;;;5013069;28;20528;-61
2023/10/16 14:46:00;;;;;;;0.40;0.40;;;10.90;52.30;;;;;;5013324;28;20269;-61
2023/10/16 14:48:26;;;;;;;0.40;0.40;;;10.90;57.50;;;;;;5013391;28;20266;-61
2023/10/16 14:50:52;;;;;;;2.00;0.63;;;10.50;51.90;;;;;;5013118;28;20195;-60
2023/10/16 14:53:25;;;;;;;1.15;0.52;;;10.50;51.60;;;;;;5013071;28;20693;-63